sensor_id;sensor_type;location;lat;lon;timestamp;pressure;altitude;pressure_sealevel;temperature;humidity
76594;BME280;65482;50.240;14.302;2023-02-17T00:01:29;100272.72;;;1.55;74.27
76594;BME280;65482;50.240;14.302;2023-02-17T00:03:54;100267.59;;;1.54;74.28
76594;BME280;65482;50.240;14.302;2023-02-17T00:06:23;100271.03;;;1.54;74.42
76594;BME280;65482;50.240;14.302;2023-02-17T00:08:49;100264.25;;;1.52;74.23
76594;BME280;65482;50.240;14.302;2023-02-17T00:11:15;100260.72;;;1.53;74.12
76594;BME280;65482;50.240;14.302;2023-02-17T00:13:41;100259.63;;;1.57;74.35
76594;BME280;65482;50.240;14.302;2023-02-17T00:16:18;100247.28;;;1.45;74.55
76594;BME280;65482;50.240;14.302;2023-02-17T00:18:45;100245.13;;;1.37;74.97
76594;BME280;65482;50.240;14.302;2023-02-17T00:21:13;100239.00;;;1.38;74.56
76594;BME280;65482;50.240;14.302;2023-02-17T00:23:39;100243.25;;;1.39;74.79
76594;BME280;65482;50.240;14.302;2023-02-17T00:26:06;100238.66;;;1.44;74.66
76594;BME280;65482;50.240;14.302;2023-02-17T00:28:31;100241.34;;;1.43;74.56
76594;BME280;65482;50.240;14.302;2023-02-17T00:30:57;100246.63;;;1.41;74.60
76594;BME280;65482;50.240;14.302;2023-02-17T00:33:22;100251.06;;;1.39;75.08
76594;BME280;65482;50.240;14.302;2023-02-17T00:35:48;100244.22;;;1.38;75.02
76594;BME280;65482;50.240;14.302;2023-02-17T00:38:13;100242.28;;;1.26;75.05
76594;BME280;65482;50.240;14.302;2023-02-17T00:40:39;100237.22;;;1.23;75.35
76594;BME280;65482;50.240;14.302;2023-02-17T00:43:05;100232.28;;;1.18;75.30
76594;BME280;65482;50.240;14.302;2023-02-17T00:45:31;100232.53;;;1.13;75.29
76594;BME280;65482;50.240;14.302;2023-02-17T00:47:57;100234.63;;;1.07;75.26
76594;BME280;65482;50.240;14.302;2023-02-17T00:50:23;100240.91;;;1.03;75.54
76594;BME280;65482;50.240;14.302;2023-02-17T00:52:48;100240.72;;;0.90;76.03
76594;BME280;65482;50.240;14.302;2023-02-17T00:55:14;100243.47;;;0.87;76.37
76594;BME280;65482;50.240;14.302;2023-02-17T00:57:39;100238.00;;;0.75;76.53
76594;BME280;65482;50.240;14.302;2023-02-17T01:00:05;100239.06;;;0.71;76.70
76594;BME280;65482;50.240;14.302;2023-02-17T01:02:31;100228.78;;;0.70;76.92
76594;BME280;65482;50.240;14.302;2023-02-17T01:04:56;100231.59;;;0.65;76.74
76594;BME280;65482;50.240;14.302;2023-02-17T01:07:22;100226.47;;;0.64;76.95
76594;BME280;65482;50.240;14.302;2023-02-17T01:09:47;100222.22;;;0.63;76.93
76594;BME280;65482;50.240;14.302;2023-02-17T01:12:13;100210.91;;;0.64;76.75
76594;BME280;65482;50.240;14.302;2023-02-17T01:14:38;100215.34;;;0.62;76.37
76594;BME280;65482;50.240;14.302;2023-02-17T01:17:04;100205.13;;;0.58;76.40
76594;BME280;65482;50.240;14.302;2023-02-17T01:19:30;100199.25;;;0.55;76.50
76594;BME280;65482;50.240;14.302;2023-02-17T01:21:55;100193.31;;;0.53;76.64
76594;BME280;65482;50.240;14.302;2023-02-17T01:24:21;100191.53;;;0.53;76.80
76594;BME280;65482;50.240;14.302;2023-02-17T01:26:46;100185.38;;;0.56;76.51
76594;BME280;65482;50.240;14.302;2023-02-17T01:29:12;100181.91;;;0.55;76.65
76594;BME280;65482;50.240;14.302;2023-02-17T01:31:38;100188.94;;;0.53;76.85
76594;BME280;65482;50.240;14.302;2023-02-17T01:34:04;100175.19;;;0.51;76.67
76594;BME280;65482;50.240;14.302;2023-02-17T01:36:30;100172.59;;;0.51;76.86
76594;BME280;65482;50.240;14.302;2023-02-17T01:38:56;100179.50;;;0.52;76.65
76594;BME280;65482;50.240;14.302;2023-02-17T01:41:24;100171.53;;;0.55;76.46
76594;BME280;65482;50.240;14.302;2023-02-17T01:44:08;100162.75;;;0.58;76.24
76594;BME280;65482;50.240;14.302;2023-02-17T01:46:35;100157.31;;;0.63;76.11
76594;BME280;65482;50.240;14.302;2023-02-17T01:49:12;100161.41;;;0.67;76.18
76594;BME280;65482;50.240;14.302;2023-02-17T01:51:39;100164.63;;;0.72;75.72
76594;BME280;65482;50.240;14.302;2023-02-17T01:54:11;100158.25;;;0.77;75.73
76594;BME280;65482;50.240;14.302;2023-02-17T01:56:39;100159.00;;;0.79;75.63
76594;BME280;65482;50.240;14.302;2023-02-17T01:59:15;100161.59;;;0.79;75.46
76594;BME280;65482;50.240;14.302;2023-02-17T02:01:42;100162.69;;;0.75;75.74
76594;BME280;65482;50.240;14.302;2023-02-17T02:04:08;100154.88;;;0.75;75.88
76594;BME280;65482;50.240;14.302;2023-02-17T02:06:35;100155.06;;;0.72;75.76
76594;BME280;65482;50.240;14.302;2023-02-17T02:09:04;100155.00;;;0.74;76.22
76594;BME280;65482;50.240;14.302;2023-02-17T02:11:31;100146.19;;;0.76;75.80
76594;BME280;65482;50.240;14.302;2023-02-17T02:13:57;100137.78;;;0.71;76.14
76594;BME280;65482;50.240;14.302;2023-02-17T02:16:42;100137.56;;;0.60;76.06
76594;BME280;65482;50.240;14.302;2023-02-17T02:22:34;100133.84;;;0.48;76.31
76594;BME280;65482;50.240;14.302;2023-02-17T02:25:12;100121.28;;;0.41;76.80
76594;BME280;65482;50.240;14.302;2023-02-17T02:35:25;100125.34;;;0.29;77.62
76594;BME280;65482;50.240;14.302;2023-02-17T02:38:18;100128.63;;;0.32;77.77
76594;BME280;65482;50.240;14.302;2023-02-17T02:40:51;100118.75;;;0.39;77.41
76594;BME280;65482;50.240;14.302;2023-02-17T02:43:19;100109.13;;;0.41;77.38
76594;BME280;65482;50.240;14.302;2023-02-17T02:45:45;100110.81;;;0.42;77.24
76594;BME280;65482;50.240;14.302;2023-02-17T02:48:12;100107.22;;;0.45;77.05
76594;BME280;65482;50.240;14.302;2023-02-17T02:56:33;100093.81;;;0.36;77.48
76594;BME280;65482;50.240;14.302;2023-02-17T02:59:36;100081.50;;;0.40;77.32
76594;BME280;65482;50.240;14.302;2023-02-17T03:02:28;100078.91;;;0.40;77.46
76594;BME280;65482;50.240;14.302;2023-02-17T03:05:17;100076.81;;;0.47;77.25
76594;BME280;65482;50.240;14.302;2023-02-17T03:07:49;100072.13;;;0.53;76.74
76594;BME280;65482;50.240;14.302;2023-02-17T03:10:18;100073.41;;;0.62;76.79
76594;BME280;65482;50.240;14.302;2023-02-17T03:12:45;100073.06;;;0.68;76.41
76594;BME280;65482;50.240;14.302;2023-02-17T03:15:14;100073.56;;;0.75;76.36
76594;BME280;65482;50.240;14.302;2023-02-17T03:17:40;100066.25;;;0.82;75.67
76594;BME280;65482;50.240;14.302;2023-02-17T03:20:06;100062.69;;;0.84;75.56
76594;BME280;65482;50.240;14.302;2023-02-17T03:22:35;100060.81;;;0.86;75.35
76594;BME280;65482;50.240;14.302;2023-02-17T03:25:05;100047.66;;;0.89;75.16
76594;BME280;65482;50.240;14.302;2023-02-17T03:27:31;100045.72;;;0.93;74.98
76594;BME280;65482;50.240;14.302;2023-02-17T03:29:56;100038.75;;;0.93;75.24
76594;BME280;65482;50.240;14.302;2023-02-17T03:32:22;100037.78;;;0.96;75.33
76594;BME280;65482;50.240;14.302;2023-02-17T03:34:47;100042.69;;;1.01;75.39
76594;BME280;65482;50.240;14.302;2023-02-17T03:37:13;100031.13;;;1.06;75.10
76594;BME280;65482;50.240;14.302;2023-02-17T03:39:38;100034.28;;;1.11;74.66
76594;BME280;65482;50.240;14.302;2023-02-17T03:42:04;100024.41;;;1.18;74.28
76594;BME280;65482;50.240;14.302;2023-02-17T03:44:30;100028.50;;;1.22;74.37
76594;BME280;65482;50.240;14.302;2023-02-17T03:46:55;100018.84;;;1.24;74.28
76594;BME280;65482;50.240;14.302;2023-02-17T03:49:21;100029.78;;;1.29;74.11
76594;BME280;65482;50.240;14.302;2023-02-17T03:51:46;100031.41;;;1.32;74.34
76594;BME280;65482;50.240;14.302;2023-02-17T03:54:12;100026.22;;;1.32;74.16
76594;BME280;65482;50.240;14.302;2023-02-17T03:56:37;100033.19;;;1.31;74.01
76594;BME280;65482;50.240;14.302;2023-02-17T03:59:03;100028.88;;;1.30;73.71
76594;BME280;65482;50.240;14.302;2023-02-17T04:01:29;100028.13;;;1.28;74.25
76594;BME280;65482;50.240;14.302;2023-02-17T04:03:54;100023.09;;;1.25;74.26
76594;BME280;65482;50.240;14.302;2023-02-17T04:06:20;100026.91;;;1.19;74.15
76594;BME280;65482;50.240;14.302;2023-02-17T04:08:46;100034.78;;;1.18;74.11
76594;BME280;65482;50.240;14.302;2023-02-17T04:11:13;100031.25;;;1.19;74.23
76594;BME280;65482;50.240;14.302;2023-02-17T04:13:38;100025.16;;;1.20;74.21
76594;BME280;65482;50.240;14.302;2023-02-17T04:16:06;100028.50;;;1.22;73.99
76594;BME280;65482;50.240;14.302;2023-02-17T04:18:31;100014.00;;;1.18;74.12
76594;BME280;65482;50.240;14.302;2023-02-17T04:20:57;100012.25;;;1.18;73.92
76594;BME280;65482;50.240;14.302;2023-02-17T04:23:23;100010.75;;;1.14;74.22
76594;BME280;65482;50.240;14.302;2023-02-17T04:25:49;100015.28;;;1.11;74.16
76594;BME280;65482;50.240;14.302;2023-02-17T04:28:15;100020.22;;;1.15;73.95
76594;BME280;65482;50.240;14.302;2023-02-17T04:30:43;100009.91;;;1.14;73.89
76594;BME280;65482;50.240;14.302;2023-02-17T04:33:09;100011.38;;;1.04;74.06
76594;BME280;65482;50.240;14.302;2023-02-17T04:35:35;100016.25;;;0.94;74.68
76594;BME280;65482;50.240;14.302;2023-02-17T04:38:00;100010.53;;;0.87;75.16
76594;BME280;65482;50.240;14.302;2023-02-17T04:40:26;100015.53;;;0.76;75.08
76594;BME280;65482;50.240;14.302;2023-02-17T04:42:51;100022.44;;;0.75;75.36
76594;BME280;65482;50.240;14.302;2023-02-17T04:45:17;100012.81;;;0.77;75.50
76594;BME280;65482;50.240;14.302;2023-02-17T04:47:42;100025.16;;;0.74;75.43
76594;BME280;65482;50.240;14.302;2023-02-17T04:50:09;100026.06;;;0.73;75.48
76594;BME280;65482;50.240;14.302;2023-02-17T04:52:34;100015.53;;;0.76;75.50
76594;BME280;65482;50.240;14.302;2023-02-17T04:55:00;100013.47;;;0.81;75.48
76594;BME280;65482;50.240;14.302;2023-02-17T04:57:26;100021.78;;;0.88;75.68
76594;BME280;65482;50.240;14.302;2023-02-17T04:59:52;100017.22;;;0.91;75.47
76594;BME280;65482;50.240;14.302;2023-02-17T05:02:18;100015.16;;;0.98;75.07
76594;BME280;65482;50.240;14.302;2023-02-17T05:04:44;100008.66;;;1.05;75.39
76594;BME280;65482;50.240;14.302;2023-02-17T05:07:09;100009.84;;;1.15;75.00
76594;BME280;65482;50.240;14.302;2023-02-17T05:09:35;100012.44;;;1.15;74.72
76594;BME280;65482;50.240;14.302;2023-02-17T05:12:00;100002.78;;;1.17;75.07
76594;BME280;65482;50.240;14.302;2023-02-17T05:14:28;100014.56;;;1.23;74.76
76594;BME280;65482;50.240;14.302;2023-02-17T05:16:53;100011.72;;;1.28;74.47
76594;BME280;65482;50.240;14.302;2023-02-17T05:19:19;100012.72;;;1.25;74.68
76594;BME280;65482;50.240;14.302;2023-02-17T05:21:44;100006.25;;;1.32;74.44
76594;BME280;65482;50.240;14.302;2023-02-17T05:24:10;100003.19;;;1.40;74.21
76594;BME280;65482;50.240;14.302;2023-02-17T05:26:35;100006.34;;;1.45;74.22
76594;BME280;65482;50.240;14.302;2023-02-17T05:29:01;100001.72;;;1.50;74.04
76594;BME280;65482;50.240;14.302;2023-02-17T05:31:26;99993.75;;;1.53;73.50
76594;BME280;65482;50.240;14.302;2023-02-17T05:33:53;99988.28;;;1.58;73.77
76594;BME280;65482;50.240;14.302;2023-02-17T05:36:19;99980.19;;;1.63;73.62
76594;BME280;65482;50.240;14.302;2023-02-17T05:38:45;99976.31;;;1.70;73.54
76594;BME280;65482;50.240;14.302;2023-02-17T05:41:16;99980.56;;;1.71;73.10
76594;BME280;65482;50.240;14.302;2023-02-17T05:43:42;99979.00;;;1.68;73.07
76594;BME280;65482;50.240;14.302;2023-02-17T05:46:07;99993.75;;;1.68;72.99
76594;BME280;65482;50.240;14.302;2023-02-17T05:48:33;99984.47;;;1.64;72.86
76594;BME280;65482;50.240;14.302;2023-02-17T05:50:59;99988.00;;;1.63;73.10
76594;BME280;65482;50.240;14.302;2023-02-17T05:53:25;99988.94;;;1.62;73.12
76594;BME280;65482;50.240;14.302;2023-02-17T05:55:51;99982.69;;;1.64;73.10
76594;BME280;65482;50.240;14.302;2023-02-17T05:58:16;99987.25;;;1.61;73.01
76594;BME280;65482;50.240;14.302;2023-02-17T06:00:42;99992.06;;;1.67;73.14
76594;BME280;65482;50.240;14.302;2023-02-17T06:03:08;99985.97;;;1.68;73.19
76594;BME280;65482;50.240;14.302;2023-02-17T06:05:33;99982.41;;;1.69;73.11
76594;BME280;65482;50.240;14.302;2023-02-17T06:07:59;99979.34;;;1.76;73.21
76594;BME280;65482;50.240;14.302;2023-02-17T06:10:24;99975.56;;;1.82;73.05
76594;BME280;65482;50.240;14.302;2023-02-17T06:12:50;99973.31;;;1.90;72.94
76594;BME280;65482;50.240;14.302;2023-02-17T06:15:16;99971.94;;;1.99;72.69
76594;BME280;65482;50.240;14.302;2023-02-17T06:17:41;99975.00;;;2.06;72.61
76594;BME280;65482;50.240;14.302;2023-02-17T06:20:08;99970.06;;;2.15;72.49
76594;BME280;65482;50.240;14.302;2023-02-17T06:22:34;99969.47;;;2.25;72.22
76594;BME280;65482;50.240;14.302;2023-02-17T06:24:59;99967.22;;;2.33;71.99
76594;BME280;65482;50.240;14.302;2023-02-17T06:27:25;99967.75;;;2.38;71.38
76594;BME280;65482;50.240;14.302;2023-02-17T06:29:51;99975.19;;;2.44;71.46
76594;BME280;65482;50.240;14.302;2023-02-17T06:32:16;99968.84;;;2.48;71.22
76594;BME280;65482;50.240;14.302;2023-02-17T06:34:42;99973.03;;;2.51;71.28
76594;BME280;65482;50.240;14.302;2023-02-17T06:37:07;99973.56;;;2.56;71.30
76594;BME280;65482;50.240;14.302;2023-02-17T06:39:33;99976.72;;;2.61;71.01
76594;BME280;65482;50.240;14.302;2023-02-17T06:41:58;99972.69;;;2.70;70.42
76594;BME280;65482;50.240;14.302;2023-02-17T06:44:24;99970.50;;;2.76;70.91
76594;BME280;65482;50.240;14.302;2023-02-17T06:46:50;99977.94;;;2.83;70.50
76594;BME280;65482;50.240;14.302;2023-02-17T06:49:15;99971.47;;;2.88;70.43
76594;BME280;65482;50.240;14.302;2023-02-17T06:51:41;99965.34;;;2.89;70.22
76594;BME280;65482;50.240;14.302;2023-02-17T06:54:07;99959.81;;;2.94;70.58
76594;BME280;65482;50.240;14.302;2023-02-17T06:56:32;99965.34;;;2.89;70.83
76594;BME280;65482;50.240;14.302;2023-02-17T06:58:58;99970.91;;;2.97;70.75
76594;BME280;65482;50.240;14.302;2023-02-17T07:01:25;99960.69;;;3.07;70.10
76594;BME280;65482;50.240;14.302;2023-02-17T07:03:55;99959.75;;;3.08;70.43
76594;BME280;65482;50.240;14.302;2023-02-17T07:06:22;99966.84;;;3.06;70.42
76594;BME280;65482;50.240;14.302;2023-02-17T07:08:49;99968.00;;;3.15;70.54
76594;BME280;65482;50.240;14.302;2023-02-17T07:11:15;99966.47;;;3.25;70.15
76594;BME280;65482;50.240;14.302;2023-02-17T07:13:41;99971.88;;;3.22;70.24
76594;BME280;65482;50.240;14.302;2023-02-17T07:16:08;99965.50;;;3.26;70.35
76594;BME280;65482;50.240;14.302;2023-02-17T07:18:34;99965.53;;;3.39;70.40
76594;BME280;65482;50.240;14.302;2023-02-17T07:21:03;99968.88;;;3.41;70.44
76594;BME280;65482;50.240;14.302;2023-02-17T07:23:29;99969.91;;;3.51;70.69
76594;BME280;65482;50.240;14.302;2023-02-17T07:25:55;99970.44;;;3.69;70.36
76594;BME280;65482;50.240;14.302;2023-02-17T07:28:20;99969.09;;;3.76;70.31
76594;BME280;65482;50.240;14.302;2023-02-17T07:30:46;99965.19;;;3.95;71.49
76594;BME280;65482;50.240;14.302;2023-02-17T07:33:11;99971.91;;;4.23;71.93
76594;BME280;65482;50.240;14.302;2023-02-17T07:35:41;99970.63;;;4.66;74.39
76594;BME280;65482;50.240;14.302;2023-02-17T07:38:11;99974.69;;;5.05;73.51
76594;BME280;65482;50.240;14.302;2023-02-17T07:40:37;99976.13;;;5.33;72.87
76594;BME280;65482;50.240;14.302;2023-02-17T07:43:03;99981.28;;;5.57;72.41
76594;BME280;65482;50.240;14.302;2023-02-17T07:45:29;99980.44;;;5.80;72.08
76594;BME280;65482;50.240;14.302;2023-02-17T07:47:55;99986.91;;;5.98;71.71
76594;BME280;65482;50.240;14.302;2023-02-17T07:50:20;99979.50;;;6.14;71.04
76594;BME280;65482;50.240;14.302;2023-02-17T07:52:46;99977.47;;;6.29;70.88
76594;BME280;65482;50.240;14.302;2023-02-17T07:55:11;99971.84;;;6.45;70.47
76594;BME280;65482;50.240;14.302;2023-02-17T07:57:37;99973.47;;;6.69;70.00
76594;BME280;65482;50.240;14.302;2023-02-17T08:00:04;99972.91;;;6.86;69.56
76594;BME280;65482;50.240;14.302;2023-02-17T08:02:30;99973.50;;;6.90;69.28
76594;BME280;65482;50.240;14.302;2023-02-17T08:04:56;99976.38;;;7.08;68.37
76594;BME280;65482;50.240;14.302;2023-02-17T08:07:22;99970.50;;;7.15;68.47
76594;BME280;65482;50.240;14.302;2023-02-17T08:09:47;99965.47;;;7.24;68.33
76594;BME280;65482;50.240;14.302;2023-02-17T08:12:31;99966.22;;;7.35;67.89
76594;BME280;65482;50.240;14.302;2023-02-17T08:15:35;99972.25;;;7.47;68.20
76594;BME280;65482;50.240;14.302;2023-02-17T08:18:00;99966.47;;;7.53;67.51
76594;BME280;65482;50.240;14.302;2023-02-17T08:20:26;99964.88;;;7.62;67.99
76594;BME280;65482;50.240;14.302;2023-02-17T08:22:52;99959.53;;;7.73;67.75
76594;BME280;65482;50.240;14.302;2023-02-17T08:25:18;99964.81;;;7.83;67.43
76594;BME280;65482;50.240;14.302;2023-02-17T08:27:43;99959.38;;;7.96;67.19
76594;BME280;65482;50.240;14.302;2023-02-17T08:30:10;99949.69;;;7.96;67.05
76594;BME280;65482;50.240;14.302;2023-02-17T08:32:37;99946.81;;;8.09;67.10
76594;BME280;65482;50.240;14.302;2023-02-17T08:35:05;99940.19;;;8.15;66.54
76594;BME280;65482;50.240;14.302;2023-02-17T08:37:31;99946.56;;;8.22;66.69
76594;BME280;65482;50.240;14.302;2023-02-17T08:39:57;99936.47;;;8.27;66.54
76594;BME280;65482;50.240;14.302;2023-02-17T08:42:26;99943.97;;;8.32;66.66
76594;BME280;65482;50.240;14.302;2023-02-17T08:44:52;99934.69;;;8.28;66.89
76594;BME280;65482;50.240;14.302;2023-02-17T08:47:17;99932.47;;;8.33;66.55
76594;BME280;65482;50.240;14.302;2023-02-17T08:49:43;99939.00;;;8.39;66.76
76594;BME280;65482;50.240;14.302;2023-02-17T08:52:08;99931.16;;;8.48;66.68
76594;BME280;65482;50.240;14.302;2023-02-17T08:54:34;99926.53;;;8.41;66.71
76594;BME280;65482;50.240;14.302;2023-02-17T08:57:00;99929.34;;;8.49;66.64
76594;BME280;65482;50.240;14.302;2023-02-17T08:59:26;99925.06;;;8.48;66.32
76594;BME280;65482;50.240;14.302;2023-02-17T09:01:51;99927.03;;;8.55;66.47
76594;BME280;65482;50.240;14.302;2023-02-17T09:04:17;99917.59;;;8.63;66.37
76594;BME280;65482;50.240;14.302;2023-02-17T09:06:47;99905.84;;;8.67;65.82
76594;BME280;65482;50.240;14.302;2023-02-17T09:09:15;99901.00;;;8.72;65.40
76594;BME280;65482;50.240;14.302;2023-02-17T09:11:41;99908.47;;;8.76;65.94
76594;BME280;65482;50.240;14.302;2023-02-17T09:14:07;99909.41;;;8.85;65.41
76594;BME280;65482;50.240;14.302;2023-02-17T09:16:32;99913.03;;;8.94;65.17
76594;BME280;65482;50.240;14.302;2023-02-17T09:18:58;99913.28;;;9.01;65.18
76594;BME280;65482;50.240;14.302;2023-02-17T09:21:24;99925.06;;;9.06;64.66
76594;BME280;65482;50.240;14.302;2023-02-17T09:23:50;99928.78;;;9.13;65.01
76594;BME280;65482;50.240;14.302;2023-02-17T09:26:16;99928.38;;;9.18;64.49
76594;BME280;65482;50.240;14.302;2023-02-17T09:28:43;99930.03;;;9.19;64.22
76594;BME280;65482;50.240;14.302;2023-02-17T09:31:13;99922.97;;;9.20;64.15
76594;BME280;65482;50.240;14.302;2023-02-17T09:33:40;99923.66;;;9.22;64.02
76594;BME280;65482;50.240;14.302;2023-02-17T09:36:08;99922.66;;;9.23;64.03
76594;BME280;65482;50.240;14.302;2023-02-17T09:38:34;99925.31;;;9.23;64.21
76594;BME280;65482;50.240;14.302;2023-02-17T09:41:08;99930.44;;;9.24;63.65
76594;BME280;65482;50.240;14.302;2023-02-17T09:43:38;99933.50;;;9.20;63.94
76594;BME280;65482;50.240;14.302;2023-02-17T09:46:10;99928.22;;;9.20;63.77
76594;BME280;65482;50.240;14.302;2023-02-17T09:48:37;99932.50;;;9.21;63.59
76594;BME280;65482;50.240;14.302;2023-02-17T09:51:09;99932.94;;;9.26;63.57
76594;BME280;65482;50.240;14.302;2023-02-17T09:53:55;99933.19;;;9.23;63.56
76594;BME280;65482;50.240;14.302;2023-02-17T09:56:30;99930.88;;;9.20;63.40
76594;BME280;65482;50.240;14.302;2023-02-17T09:58:59;99913.94;;;9.22;63.36
76594;BME280;65482;50.240;14.302;2023-02-17T10:01:31;99919.75;;;9.26;63.36
76594;BME280;65482;50.240;14.302;2023-02-17T10:06:39;99911.16;;;9.33;63.07
76594;BME280;65482;50.240;14.302;2023-02-17T10:11:41;99908.75;;;9.50;62.71
76594;BME280;65482;50.240;14.302;2023-02-17T10:14:14;99905.94;;;9.61;62.12
76594;BME280;65482;50.240;14.302;2023-02-17T10:20:08;99902.16;;;9.73;61.97
76594;BME280;65482;50.240;14.302;2023-02-17T10:22:36;99896.16;;;9.81;61.91
76594;BME280;65482;50.240;14.302;2023-02-17T10:25:16;99897.06;;;9.90;61.44
76594;BME280;65482;50.240;14.302;2023-02-17T10:28:16;99889.94;;;10.00;61.38
76594;BME280;65482;50.240;14.302;2023-02-17T10:30:59;99887.69;;;10.05;61.10
76594;BME280;65482;50.240;14.302;2023-02-17T10:33:48;99874.75;;;10.12;61.15
76594;BME280;65482;50.240;14.302;2023-02-17T10:37:00;99871.44;;;10.10;61.08
76594;BME280;65482;50.240;14.302;2023-02-17T10:39:48;99861.22;;;10.25;60.84
76594;BME280;65482;50.240;14.302;2023-02-17T10:42:35;99850.19;;;10.39;60.57
76594;BME280;65482;50.240;14.302;2023-02-17T10:47:30;99844.13;;;10.65;60.15
76594;BME280;65482;50.240;14.302;2023-02-17T10:49:58;99843.44;;;10.81;59.58
76594;BME280;65482;50.240;14.302;2023-02-17T10:52:46;99827.69;;;10.97;59.48
76594;BME280;65482;50.240;14.302;2023-02-17T10:55:21;99831.72;;;11.09;59.23
76594;BME280;65482;50.240;14.302;2023-02-17T10:57:52;99835.13;;;11.28;58.90
76594;BME280;65482;50.240;14.302;2023-02-17T11:00:20;99829.06;;;11.35;58.73
76594;BME280;65482;50.240;14.302;2023-02-17T11:02:49;99824.09;;;11.32;58.87
76594;BME280;65482;50.240;14.302;2023-02-17T11:05:29;99815.75;;;11.45;58.78
76594;BME280;65482;50.240;14.302;2023-02-17T11:07:58;99812.16;;;11.54;59.01
76594;BME280;65482;50.240;14.302;2023-02-17T11:10:30;99808.75;;;11.70;58.98
76594;BME280;65482;50.240;14.302;2023-02-17T11:13:00;99802.81;;;11.77;58.40
76594;BME280;65482;50.240;14.302;2023-02-17T11:15:50;99795.00;;;11.67;58.53
76594;BME280;65482;50.240;14.302;2023-02-17T11:18:20;99809.38;;;11.64;58.64
76594;BME280;65482;50.240;14.302;2023-02-17T11:21:06;99808.69;;;11.54;59.14
76594;BME280;65482;50.240;14.302;2023-02-17T11:23:33;99800.03;;;11.44;59.28
76594;BME280;65482;50.240;14.302;2023-02-17T11:26:06;99794.91;;;11.34;59.56
76594;BME280;65482;50.240;14.302;2023-02-17T11:28:32;99781.41;;;11.45;59.54
76594;BME280;65482;50.240;14.302;2023-02-17T11:30:58;99771.66;;;11.46;59.26
76594;BME280;65482;50.240;14.302;2023-02-17T11:33:36;99775.97;;;11.55;59.33
76594;BME280;65482;50.240;14.302;2023-02-17T11:36:04;99773.84;;;11.59;59.47
76594;BME280;65482;50.240;14.302;2023-02-17T11:38:42;99763.97;;;11.61;59.22
76594;BME280;65482;50.240;14.302;2023-02-17T11:41:09;99752.72;;;11.59;58.94
76594;BME280;65482;50.240;14.302;2023-02-17T11:43:36;99746.63;;;11.66;58.86
76594;BME280;65482;50.240;14.302;2023-02-17T11:46:30;99749.59;;;11.63;59.08
76594;BME280;65482;50.240;14.302;2023-02-17T11:52:11;99731.59;;;11.59;59.29
76594;BME280;65482;50.240;14.302;2023-02-17T11:54:57;99738.03;;;11.64;59.23
76594;BME280;65482;50.240;14.302;2023-02-17T12:00:16;99735.56;;;11.63;59.77
76594;BME280;65482;50.240;14.302;2023-02-17T12:05:57;99738.69;;;11.58;59.72
76594;BME280;65482;50.240;14.302;2023-02-17T12:11:13;99709.78;;;11.57;60.08
76594;BME280;65482;50.240;14.302;2023-02-17T12:22:18;99702.03;;;11.63;59.73
76594;BME280;65482;50.240;14.302;2023-02-17T12:24:57;99696.94;;;11.70;59.69
76594;BME280;65482;50.240;14.302;2023-02-17T12:31:01;99698.25;;;11.74;59.89
76594;BME280;65482;50.240;14.302;2023-02-17T12:33:41;99691.81;;;11.77;59.58
76594;BME280;65482;50.240;14.302;2023-02-17T12:36:14;99699.41;;;11.80;59.58
76594;BME280;65482;50.240;14.302;2023-02-17T12:38:47;99699.09;;;11.83;59.43
76594;BME280;65482;50.240;14.302;2023-02-17T12:41:18;99688.66;;;11.81;59.71
76594;BME280;65482;50.240;14.302;2023-02-17T12:43:48;99691.81;;;11.85;59.16
76594;BME280;65482;50.240;14.302;2023-02-17T12:46:18;99681.63;;;11.90;59.17
76594;BME280;65482;50.240;14.302;2023-02-17T12:48:52;99686.03;;;11.81;59.40
76594;BME280;65482;50.240;14.302;2023-02-17T12:51:27;99662.25;;;11.73;59.68
76594;BME280;65482;50.240;14.302;2023-02-17T12:54:02;99665.22;;;11.70;60.86
76594;BME280;65482;50.240;14.302;2023-02-17T12:59:14;99672.97;;;11.55;61.88
76594;BME280;65482;50.240;14.302;2023-02-17T13:01:47;99666.34;;;11.43;62.79
76594;BME280;65482;50.240;14.302;2023-02-17T13:04:17;99663.84;;;11.41;63.06
76594;BME280;65482;50.240;14.302;2023-02-17T13:06:47;99660.06;;;11.44;62.97
76594;BME280;65482;50.240;14.302;2023-02-17T13:09:28;99655.63;;;11.44;63.23
76594;BME280;65482;50.240;14.302;2023-02-17T13:12:13;99665.03;;;11.47;62.99
76594;BME280;65482;50.240;14.302;2023-02-17T13:14:45;99669.50;;;11.46;62.91
76594;BME280;65482;50.240;14.302;2023-02-17T13:17:32;99652.31;;;11.50;62.80
76594;BME280;65482;50.240;14.302;2023-02-17T13:22:37;99648.81;;;11.42;62.68
76594;BME280;65482;50.240;14.302;2023-02-17T13:25:04;99659.22;;;11.43;62.80
76594;BME280;65482;50.240;14.302;2023-02-17T13:27:35;99649.16;;;11.47;62.37
76594;BME280;65482;50.240;14.302;2023-02-17T13:32:43;99655.47;;;11.62;62.21
76594;BME280;65482;50.240;14.302;2023-02-17T13:40:02;99634.00;;;11.73;61.79
76594;BME280;65482;50.240;14.302;2023-02-17T13:42:39;99634.66;;;11.75;61.47
76594;BME280;65482;50.240;14.302;2023-02-17T13:45:24;99626.41;;;11.79;61.64
76594;BME280;65482;50.240;14.302;2023-02-17T13:47:53;99623.25;;;11.83;61.51
76594;BME280;65482;50.240;14.302;2023-02-17T13:50:36;99603.44;;;11.87;61.61
76594;BME280;65482;50.240;14.302;2023-02-17T13:53:18;99589.09;;;11.82;61.74
76594;BME280;65482;50.240;14.302;2023-02-17T13:55:45;99591.38;;;11.85;62.02
76594;BME280;65482;50.240;14.302;2023-02-17T13:58:11;99586.28;;;11.75;62.46
76594;BME280;65482;50.240;14.302;2023-02-17T14:00:37;99577.19;;;11.69;62.51
76594;BME280;65482;50.240;14.302;2023-02-17T14:03:31;99593.03;;;11.61;63.04
76594;BME280;65482;50.240;14.302;2023-02-17T14:05:59;99573.88;;;11.59;63.07
76594;BME280;65482;50.240;14.302;2023-02-17T14:08:35;99571.59;;;11.56;63.29